Time;durP1;ratioP1;P1;durP2;ratioP2;P2;SDS_P1;SDS_P2;PMS_P1;PMS_P2;Temp;Humidity;BMP_temperature;BMP_pressure;BME280_temperature;BME280_humidity;BME280_pressure;Samples;Min_cycle;Max_cycle;Signal;HPM_P1;HPM_P2
2022/07/19 00:01:20;;;;;;;0.60;0.60;;;20.00;99.90;;;;;;4145689;28;20100;-81
2022/07/19 00:03:42;;;;;;;0.70;0.60;;;19.80;99.90;;;;;;4156328;28;20095;-80
2022/07/19 00:06:03;;;;;;;0.60;0.60;;;19.60;99.90;;;;;;4161918;28;20068;-81
2022/07/19 00:08:23;;;;;;;0.60;0.60;;;19.60;99.90;;;;;;4162155;28;20095;-81
2022/07/19 00:10:43;;;;;;;1.00;0.93;;;19.40;99.90;;;;;;4162417;28;20048;-81
2022/07/19 00:13:04;;;;;;;3.17;1.13;;;19.30;99.90;;;;;;4154113;28;20053;-81
2022/07/19 00:15:25;;;;;;;0.60;0.60;;;19.20;99.90;;;;;;4146375;28;20125;-81
2022/07/19 00:17:47;;;;;;;0.60;0.60;;;19.20;99.90;;;;;;4161547;28;20048;-81
2022/07/19 00:20:13;;;;;;;0.65;0.65;;;19.10;99.90;;;;;;4146627;28;20182;-80
2022/07/19 00:22:34;;;;;;;2.15;0.70;;;19.00;99.90;;;;;;4146472;28;20405;-81
2022/07/19 00:24:55;;;;;;;2.67;1.25;;;19.10;99.90;;;;;;4161873;28;20096;-80
2022/07/19 00:27:16;;;;;;;0.70;0.70;;;18.90;99.90;;;;;;4161854;28;20099;-80
2022/07/19 00:29:36;;;;;;;0.77;0.77;;;18.80;99.90;;;;;;4161480;28;20134;-81
2022/07/19 00:31:57;;;;;;;0.70;0.70;;;18.90;99.90;;;;;;4161182;28;20107;-81
2022/07/19 00:34:18;;;;;;;0.70;0.70;;;18.80;99.90;;;;;;4161583;28;20125;-81
2022/07/19 00:36:38;;;;;;;1.63;0.63;;;18.70;99.90;;;;;;4146732;28;20053;-80
2022/07/19 00:38:59;;;;;;;0.80;0.70;;;18.60;99.90;;;;;;4161772;28;20111;-80
2022/07/19 00:41:20;;;;;;;0.80;0.80;;;18.40;99.90;;;;;;4146434;28;20053;-81
2022/07/19 00:43:43;;;;;;;0.90;0.90;;;18.20;99.90;;;;;;4146549;28;20175;-81
2022/07/19 00:46:04;;;;;;;1.80;0.90;;;18.20;99.90;;;;;;4145247;28;20056;-81
2022/07/19 00:48:25;;;;;;;0.90;0.90;;;18.10;99.90;;;;;;4155756;28;20060;-80
2022/07/19 00:50:45;;;;;;;1.60;0.95;;;18.10;99.90;;;;;;4146598;28;20045;-80
2022/07/19 00:53:06;;;;;;;1.95;0.90;;;18.10;99.90;;;;;;4146232;28;20096;-80
2022/07/19 00:55:29;;;;;;;1.92;0.80;;;18.10;99.90;;;;;;4161279;28;20079;-81
2022/07/19 00:57:50;;;;;;;1.05;0.95;;;18.10;99.90;;;;;;4160319;28;20791;-80
2022/07/19 01:00:13;;;;;;;1.02;0.80;;;18.10;99.90;;;;;;4161328;28;20205;-80
2022/07/19 01:02:35;;;;;;;;;;;18.10;99.90;;;;;;4146612;28;20545;-80
2022/07/19 01:04:55;;;;;;;1.48;0.80;;;18.10;99.90;;;;;;4161446;28;19931;-81
2022/07/19 01:07:17;;;;;;;0.95;0.90;;;18.10;99.90;;;;;;4146268;28;20469;-80
2022/07/19 01:09:38;;;;;;;1.05;0.85;;;18.20;99.90;;;;;;4160871;28;20061;-81
2022/07/19 01:11:58;;;;;;;0.80;0.80;;;18.30;99.90;;;;;;4146236;28;20126;-80
2022/07/19 01:14:19;;;;;;;0.77;0.77;;;18.40;99.90;;;;;;4161080;28;20056;-81
2022/07/19 01:16:44;;;;;;;0.77;0.77;;;18.40;99.90;;;;;;4145811;28;20056;-80
2022/07/19 01:19:06;;;;;;;2.47;0.70;;;18.40;99.90;;;;;;4145774;28;20104;-80
2022/07/19 01:21:26;;;;;;;3.92;1.10;;;18.40;99.90;;;;;;4146165;28;20132;-81
2022/07/19 01:23:47;;;;;;;1.45;0.80;;;18.40;99.90;;;;;;4145737;28;20057;-81
2022/07/19 01:26:08;;;;;;;2.50;0.82;;;18.20;99.90;;;;;;4161107;28;20100;-81
2022/07/19 01:28:29;;;;;;;0.70;0.70;;;18.30;99.90;;;;;;4145165;28;20579;-81
2022/07/19 01:30:50;;;;;;;1.45;1.20;;;18.20;99.90;;;;;;4144695;28;20053;-80
2022/07/19 01:33:11;;;;;;;1.05;0.95;;;18.00;99.90;;;;;;4156257;28;20103;-81
2022/07/19 01:35:32;;;;;;;0.80;0.80;;;18.00;99.90;;;;;;4160915;28;20080;-81
2022/07/19 01:37:53;;;;;;;1.17;0.80;;;18.00;99.90;;;;;;4160585;28;20095;-81
2022/07/19 01:40:16;;;;;;;1.80;0.90;;;17.90;99.90;;;;;;4144474;28;20052;-80
2022/07/19 01:42:38;;;;;;;0.90;0.80;;;18.10;99.90;;;;;;4140119;28;20162;-80
2022/07/19 01:44:59;;;;;;;0.90;0.90;;;18.00;99.90;;;;;;4148327;28;20404;-80
2022/07/19 01:47:19;;;;;;;0.80;0.80;;;18.10;99.90;;;;;;4146012;28;20137;-80
2022/07/19 01:49:40;;;;;;;0.90;0.90;;;18.20;99.90;;;;;;4141455;28;20541;-81
2022/07/19 01:52:00;;;;;;;1.13;0.88;;;18.10;99.90;;;;;;4143836;28;20049;-80
2022/07/19 01:54:21;;;;;;;1.50;0.80;;;18.10;99.90;;;;;;4146859;28;20100;-80
2022/07/19 01:56:43;;;;;;;0.75;0.75;;;18.10;99.90;;;;;;4145680;28;20057;-80
2022/07/19 01:59:04;;;;;;;0.80;0.73;;;18.00;99.90;;;;;;4145654;28;20104;-80
2022/07/19 02:01:24;;;;;;;1.48;1.25;;;17.90;99.90;;;;;;4160491;28;20048;-80
2022/07/19 02:03:45;;;;;;;2.90;1.08;;;18.00;99.90;;;;;;4145750;28;20088;-80
2022/07/19 02:06:06;;;;;;;1.17;0.90;;;17.90;99.90;;;;;;4145708;28;20072;-80
2022/07/19 02:08:27;;;;;;;0.90;0.90;;;17.90;99.90;;;;;;4160192;28;20129;-80
2022/07/19 02:10:48;;;;;;;0.95;0.90;;;17.80;99.90;;;;;;4146487;28;20105;-80
2022/07/19 02:13:09;;;;;;;1.45;0.80;;;17.60;99.90;;;;;;4176999;28;20105;-80
2022/07/19 02:15:29;;;;;;;1.65;0.80;;;17.70;99.90;;;;;;4144382;28;20508;-80
2022/07/19 02:17:50;;;;;;;0.90;0.90;;;17.70;99.90;;;;;;4155436;28;20421;-80
2022/07/19 02:20:12;;;;;;;1.13;0.90;;;17.60;99.90;;;;;;4160471;28;20048;-80
2022/07/19 02:22:35;;;;;;;0.80;0.80;;;17.50;99.90;;;;;;4131650;28;20138;-80
2022/07/19 02:24:55;;;;;;;0.90;0.90;;;17.40;99.90;;;;;;4144343;28;20125;-80
2022/07/19 02:27:16;;;;;;;1.08;0.90;;;17.40;99.90;;;;;;4139681;28;20768;-80
2022/07/19 02:29:37;;;;;;;1.33;0.80;;;17.40;99.90;;;;;;4160239;28;20135;-80
2022/07/19 02:31:57;;;;;;;0.82;0.82;;;17.30;99.90;;;;;;4160433;28;20055;-80
2022/07/19 02:34:18;;;;;;;0.95;0.95;;;17.40;99.90;;;;;;4160503;28;20115;-80
2022/07/19 02:36:39;;;;;;;0.90;0.90;;;17.30;99.90;;;;;;4160025;28;20117;-80
2022/07/19 02:38:59;;;;;;;1.08;1.00;;;17.40;99.90;;;;;;4146353;28;20053;-80
2022/07/19 02:41:20;;;;;;;0.80;0.80;;;17.40;99.90;;;;;;4148607;28;20089;-80
2022/07/19 02:43:41;;;;;;;0.80;0.80;;;17.50;99.90;;;;;;4163172;28;20125;-80
2022/07/19 02:46:02;;;;;;;1.33;1.08;;;17.40;99.90;;;;;;4163001;28;20104;-80
2022/07/19 02:48:23;;;;;;;1.00;1.00;;;17.30;99.90;;;;;;4163056;28;20052;-81
2022/07/19 02:50:44;;;;;;;0.90;0.90;;;17.30;99.90;;;;;;4163479;28;20060;-81
2022/07/19 02:53:05;;;;;;;0.93;0.93;;;17.30;99.90;;;;;;4162688;28;20044;-80
2022/07/19 02:55:26;;;;;;;1.50;0.90;;;17.20;99.90;;;;;;4148191;28;20048;-80
2022/07/19 02:57:46;;;;;;;1.00;1.00;;;17.30;99.90;;;;;;4163232;28;20057;-80
2022/07/19 03:00:09;;;;;;;1.25;1.15;;;17.40;99.90;;;;;;4147046;28;20458;-80
2022/07/19 03:02:30;;;;;;;1.55;0.80;;;17.40;99.90;;;;;;4158514;28;20080;-80
2022/07/19 03:04:50;;;;;;;1.00;1.00;;;17.20;99.90;;;;;;4163095;28;20409;-80
2022/07/19 03:07:12;;;;;;;1.05;0.95;;;17.00;99.90;;;;;;4162987;28;20068;-80
2022/07/19 03:09:32;;;;;;;0.93;0.93;;;17.00;99.90;;;;;;4131720;28;20062;-80
2022/07/19 03:11:53;;;;;;;1.38;0.80;;;16.90;99.90;;;;;;4132271;28;20157;-80
2022/07/19 03:14:13;;;;;;;0.98;0.98;;;16.80;99.90;;;;;;4149911;28;20053;-80
2022/07/19 03:16:34;;;;;;;1.00;1.00;;;16.70;99.90;;;;;;4162904;28;20268;-80
2022/07/19 03:18:54;;;;;;;3.30;1.27;;;16.70;99.90;;;;;;4162721;28;20156;-80
2022/07/19 03:21:15;;;;;;;1.25;1.20;;;16.70;99.90;;;;;;4162635;28;20083;-80
2022/07/19 03:23:37;;;;;;;2.25;1.10;;;16.60;99.90;;;;;;4162505;28;20088;-80
2022/07/19 03:25:58;;;;;;;0.90;0.90;;;16.50;99.90;;;;;;4148110;28;20611;-80
2022/07/19 03:28:18;;;;;;;1.10;1.10;;;16.70;99.90;;;;;;4162520;28;20128;-81
2022/07/19 03:30:39;;;;;;;3.95;1.08;;;16.70;99.90;;;;;;4147266;28;20130;-80
2022/07/19 03:33:00;;;;;;;2.05;1.00;;;16.60;99.90;;;;;;4147285;28;20999;-81
2022/07/19 03:35:21;;;;;;;1.08;1.08;;;16.60;99.90;;;;;;4147607;28;20580;-80
2022/07/19 03:37:42;;;;;;;2.25;1.40;;;16.60;99.90;;;;;;4147384;28;20060;-80
2022/07/19 03:40:04;;;;;;;1.10;1.00;;;16.50;99.90;;;;;;4162538;28;20488;-80
2022/07/19 03:42:24;;;;;;;3.13;1.00;;;16.50;99.90;;;;;;4162388;28;20423;-80
2022/07/19 03:44:45;;;;;;;1.30;1.25;;;16.50;99.90;;;;;;4162009;28;20084;-80
2022/07/19 03:47:05;;;;;;;1.10;1.10;;;16.40;99.90;;;;;;4147457;28;20213;-80
2022/07/19 03:49:26;;;;;;;1.20;1.20;;;16.40;99.90;;;;;;4162618;28;20052;-80
2022/07/19 03:51:47;;;;;;;1.10;1.10;;;16.40;99.90;;;;;;4161466;28;20103;-80
2022/07/19 03:54:07;;;;;;;1.00;1.00;;;16.50;99.90;;;;;;4162142;28;20052;-80
2022/07/19 03:56:28;;;;;;;1.10;1.10;;;16.50;99.90;;;;;;4147479;28;20053;-80
2022/07/19 03:58:49;;;;;;;1.23;1.23;;;16.60;99.90;;;;;;4147083;28;20124;-81
2022/07/19 04:01:09;;;;;;;1.65;1.10;;;16.70;99.90;;;;;;4160700;28;20057;-80
2022/07/19 04:03:30;;;;;;;1.25;1.20;;;16.70;99.90;;;;;;4162209;28;20103;-80
2022/07/19 04:05:51;;;;;;;2.88;1.42;;;16.70;99.90;;;;;;4162081;28;20543;-80
2022/07/19 04:08:12;;;;;;;1.00;1.00;;;16.60;99.90;;;;;;4161879;28;20782;-80
2022/07/19 04:10:32;;;;;;;1.20;1.20;;;16.60;99.90;;;;;;4162250;28;20060;-80
2022/07/19 04:12:53;;;;;;;1.17;1.10;;;16.60;99.90;;;;;;4145631;28;20096;-80
2022/07/19 04:15:14;;;;;;;2.05;1.10;;;16.70;99.90;;;;;;4130871;28;20053;-80
2022/07/19 04:17:34;;;;;;;1.27;1.25;;;16.70;99.90;;;;;;4157371;28;20091;-80
2022/07/19 04:19:55;;;;;;;2.25;1.20;;;16.60;99.90;;;;;;4178163;28;20055;-80
2022/07/19 04:22:15;;;;;;;1.00;1.00;;;16.50;99.90;;;;;;4156266;28;20645;-80
2022/07/19 04:24:36;;;;;;;1.77;1.00;;;16.50;99.90;;;;;;4161708;28;20095;-80
2022/07/19 04:26:57;;;;;;;1.80;1.30;;;16.40;99.90;;;;;;4147038;28;20612;-80
2022/07/19 04:29:17;;;;;;;1.20;1.20;;;16.50;99.90;;;;;;4145331;28;20088;-80
2022/07/19 04:31:38;;;;;;;1.00;1.00;;;16.60;99.90;;;;;;4161779;28;20084;-80
2022/07/19 04:34:00;;;;;;;1.90;1.20;;;16.40;99.90;;;;;;4161503;28;20055;-80
2022/07/19 04:36:20;;;;;;;2.08;1.35;;;16.30;99.90;;;;;;4161560;28;20056;-80
2022/07/19 04:38:41;;;;;;;1.05;1.02;;;16.10;99.90;;;;;;4161263;28;20413;-81
2022/07/19 04:41:02;;;;;;;1.52;1.40;;;16.20;99.90;;;;;;4161508;28;20044;-80
2022/07/19 04:43:23;;;;;;;1.35;1.35;;;16.30;99.90;;;;;;4141647;28;20052;-80
2022/07/19 04:45:44;;;;;;;3.92;1.00;;;16.30;99.90;;;;;;4149789;28;20049;-80
2022/07/19 04:48:05;;;;;;;1.02;1.02;;;16.60;99.90;;;;;;4146431;28;20603;-80
2022/07/19 04:50:26;;;;;;;1.00;1.00;;;16.60;99.90;;;;;;4140626;28;20161;-81
2022/07/19 04:52:46;;;;;;;2.65;1.20;;;16.60;99.90;;;;;;4161386;28;20061;-81
2022/07/19 04:55:08;;;;;;;1.30;1.20;;;16.60;99.90;;;;;;4161146;28;20091;-81
2022/07/19 04:57:28;;;;;;;1.52;1.10;;;16.60;99.90;;;;;;4146456;28;20060;-81
2022/07/19 04:59:49;;;;;;;1.25;1.25;;;16.50;99.90;;;;;;4146486;28;20138;-81
2022/07/19 05:02:09;;;;;;;2.83;1.30;;;16.40;99.90;;;;;;4160916;28;20048;-81
2022/07/19 05:04:30;;;;;;;2.15;1.30;;;16.40;99.90;;;;;;4146651;28;20080;-82
2022/07/19 05:06:56;;;;;;;2.30;1.30;;;16.40;99.90;;;;;;4161384;28;20063;-82
2022/07/19 05:09:18;;;;;;;2.10;1.30;;;16.50;99.90;;;;;;4159080;28;20526;-81
2022/07/19 05:11:39;;;;;;;1.23;1.10;;;16.40;99.90;;;;;;4168878;28;20052;-81
2022/07/19 05:13:59;;;;;;;1.13;1.10;;;16.40;99.90;;;;;;4176001;28;20141;-82
2022/07/19 05:16:20;;;;;;;1.67;1.10;;;16.60;99.90;;;;;;4145960;28;20149;-82
2022/07/19 05:18:41;;;;;;;1.00;1.00;;;16.80;99.90;;;;;;4160404;28;20052;-82
2022/07/19 05:21:02;;;;;;;1.40;1.30;;;16.90;99.90;;;;;;4145847;28;20101;-82
2022/07/19 05:23:22;;;;;;;2.97;1.20;;;16.90;99.90;;;;;;4145875;28;20064;-83
2022/07/19 05:25:42;;;;;;;1.20;1.00;;;17.00;99.90;;;;;;4129795;28;20066;-84
2022/07/19 05:28:04;;;;;;;1.10;1.10;;;17.20;99.90;;;;;;4155903;28;20142;-83
2022/07/19 05:30:24;;;;;;;2.13;1.00;;;17.30;99.90;;;;;;4161012;28;20052;-84
2022/07/19 05:32:44;;;;;;;8.77;1.58;;;17.30;99.90;;;;;;4145802;28;20060;-83
2022/07/19 05:35:05;;;;;;;2.85;1.02;;;17.30;99.90;;;;;;4130208;28;20081;-84
2022/07/19 05:37:26;;;;;;;1.35;1.00;;;17.50;99.90;;;;;;4135741;28;20122;-83
2022/07/19 05:39:47;;;;;;;1.10;0.90;;;17.50;99.90;;;;;;4159413;28;20127;-84
2022/07/19 05:42:08;;;;;;;1.35;1.10;;;17.80;99.90;;;;;;4161045;28;20061;-85
2022/07/19 05:44:29;;;;;;;2.33;1.17;;;17.80;99.90;;;;;;4145196;28;20076;-84
2022/07/19 05:46:49;;;;;;;1.00;1.00;;;17.90;99.90;;;;;;4137468;28;20576;-84
2022/07/19 05:49:11;;;;;;;1.00;1.00;;;18.00;99.90;;;;;;4146687;28;20170;-85
2022/07/19 05:51:32;;;;;;;1.85;1.00;;;18.20;99.90;;;;;;4145989;28;20200;-85
2022/07/19 05:53:53;;;;;;;0.90;0.90;;;18.30;99.90;;;;;;4160852;28;20056;-85
2022/07/19 05:56:13;;;;;;;1.00;1.00;;;18.30;99.90;;;;;;4145880;28;20072;-84
2022/07/19 05:58:35;;;;;;;0.90;0.90;;;18.50;99.90;;;;;;4161275;28;20061;-85
2022/07/19 06:03:36;;;;;;;0.90;0.90;;;18.60;99.90;;;;;;4161045;28;20060;-85
2022/07/19 06:05:56;;;;;;;1.30;0.90;;;18.60;99.90;;;;;;4146108;28;20069;-85
2022/07/19 06:08:17;;;;;;;1.20;1.10;;;18.90;99.90;;;;;;4145927;28;20144;-84
2022/07/19 06:10:38;;;;;;;1.92;0.90;;;18.90;99.90;;;;;;4146155;28;20097;-85
2022/07/19 06:12:59;;;;;;;3.28;0.80;;;18.90;99.90;;;;;;4158384;28;20064;-85
2022/07/19 06:15:20;;;;;;;1.00;0.80;;;19.10;99.90;;;;;;4164192;28;20519;-85
2022/07/19 06:17:41;;;;;;;2.17;0.80;;;19.30;99.90;;;;;;4149307;28;20084;-85
2022/07/19 06:20:03;;;;;;;0.80;0.80;;;19.60;99.90;;;;;;4164329;28;20056;-85
2022/07/19 06:22:23;;;;;;;0.82;0.80;;;19.70;99.90;;;;;;4148834;28;20062;-85
2022/07/19 06:24:44;;;;;;;0.80;0.80;;;19.70;99.90;;;;;;4149544;28;20149;-85
2022/07/19 06:27:05;;;;;;;0.80;0.80;;;19.90;99.90;;;;;;4164110;28;20056;-85
2022/07/19 06:29:26;;;;;;;0.95;0.85;;;20.10;99.90;;;;;;4134827;28;20180;-85
2022/07/19 06:31:48;;;;;;;0.90;0.90;;;20.10;99.90;;;;;;4163979;28;20107;-85
2022/07/19 06:34:09;;;;;;;1.00;0.80;;;20.20;99.90;;;;;;4163808;28;20127;-85
2022/07/19 06:36:33;;;;;;;3.25;0.80;;;20.30;99.90;;;;;;4164302;28;20060;-85
2022/07/19 06:38:55;;;;;;;0.70;0.70;;;20.50;99.90;;;;;;4147873;28;20116;-85
2022/07/19 06:41:16;;;;;;;0.82;0.70;;;21.00;99.90;;;;;;4157931;28;20402;-85
2022/07/19 06:43:38;;;;;;;1.20;0.60;;;21.00;99.90;;;;;;4149060;28;20151;-85
2022/07/19 06:45:59;;;;;;;0.70;0.70;;;21.10;99.90;;;;;;4149068;28;20589;-85
2022/07/19 06:48:20;;;;;;;0.80;0.80;;;21.10;99.90;;;;;;4149139;28;20088;-85
2022/07/19 06:50:41;;;;;;;1.45;0.77;;;21.20;99.90;;;;;;4149061;28;20088;-85
2022/07/19 06:53:02;;;;;;;0.80;0.80;;;21.50;99.90;;;;;;4148960;28;20948;-85
2022/07/19 06:55:24;;;;;;;0.75;0.75;;;21.60;99.90;;;;;;4163804;28;20772;-85
2022/07/19 06:57:45;;;;;;;1.30;0.70;;;21.80;99.90;;;;;;4163677;28;20052;-85
2022/07/19 07:00:09;;;;;;;1.85;0.60;;;21.90;99.90;;;;;;4148547;28;20090;-85
2022/07/19 07:02:30;;;;;;;0.60;0.60;;;22.00;99.90;;;;;;4163364;28;20571;-85
2022/07/19 07:04:50;;;;;;;1.48;0.68;;;22.20;99.90;;;;;;4163432;28;20099;-85
2022/07/19 07:07:13;;;;;;;2.60;0.70;;;22.40;99.90;;;;;;4163613;28;20056;-85
2022/07/19 07:09:34;;;;;;;1.38;0.60;;;22.70;99.90;;;;;;4163494;28;20558;-85
2022/07/19 07:11:55;;;;;;;1.15;1.05;;;22.90;99.90;;;;;;4173183;28;20573;-85
2022/07/19 07:14:15;;;;;;;0.85;0.70;;;23.10;99.90;;;;;;4148263;28;20053;-85
2022/07/19 07:16:36;;;;;;;0.60;0.60;;;23.20;99.90;;;;;;4148578;28;20116;-85
2022/07/19 07:18:57;;;;;;;0.70;0.70;;;23.20;99.90;;;;;;4163358;28;20161;-85
2022/07/19 07:21:18;;;;;;;2.05;0.70;;;23.40;99.90;;;;;;4148344;28;20612;-85
2022/07/19 07:23:39;;;;;;;0.90;0.70;;;23.60;99.90;;;;;;4162940;28;20119;-85
2022/07/19 07:26:02;;;;;;;0.60;0.60;;;23.80;99.90;;;;;;4161861;28;20095;-85
2022/07/19 07:28:23;;;;;;;0.82;0.73;;;24.20;99.90;;;;;;4148416;28;20056;-85
2022/07/19 07:30:45;;;;;;;4.05;0.85;;;24.50;99.20;;;;;;4163235;28;20055;-85
2022/07/19 07:33:06;;;;;;;1.65;0.68;;;24.40;98.70;;;;;;4146356;28;20068;-85
2022/07/19 07:35:27;;;;;;;0.60;0.60;;;24.60;99.00;;;;;;4142071;28;20081;-85
2022/07/19 07:37:49;;;;;;;1.70;0.90;;;24.70;98.00;;;;;;4147983;28;20105;-85
2022/07/19 07:40:10;;;;;;;3.65;0.60;;;24.90;96.20;;;;;;4148232;28;20180;-85
2022/07/19 07:42:32;;;;;;;0.80;0.63;;;25.60;96.40;;;;;;4147881;28;20048;-86
2022/07/19 07:44:53;;;;;;;3.28;0.60;;;25.80;95.70;;;;;;4155740;28;20076;-85
2022/07/19 07:47:13;;;;;;;0.50;0.50;;;25.90;96.40;;;;;;4147918;28;20503;-86
2022/07/19 07:49:38;;;;;;;3.10;0.60;;;25.90;95.20;;;;;;4163057;28;20055;-86
2022/07/19 07:51:59;;;;;;;0.82;0.60;;;26.10;94.70;;;;;;4162490;28;20404;-85
2022/07/19 07:54:20;;;;;;;1.67;0.60;;;26.20;95.00;;;;;;4147599;28;20536;-85
2022/07/19 07:56:41;;;;;;;0.70;0.70;;;26.40;94.60;;;;;;4162572;28;20405;-86
2022/07/19 07:59:02;;;;;;;3.05;0.60;;;26.90;95.40;;;;;;4148222;28;20100;-86
2022/07/19 08:01:22;;;;;;;0.50;0.50;;;27.10;94.20;;;;;;4162748;28;20052;-86
2022/07/19 08:03:43;;;;;;;1.30;0.50;;;27.00;94.50;;;;;;4162343;28;20060;-86
2022/07/19 08:06:04;;;;;;;1.83;0.60;;;27.00;94.70;;;;;;4147860;28;20162;-86
2022/07/19 08:08:29;;;;;;;1.77;0.60;;;27.30;94.10;;;;;;4158598;28;20096;-86
2022/07/19 08:10:49;;;;;;;1.95;0.60;;;27.40;94.40;;;;;;4148639;28;20076;-86
2022/07/19 08:13:10;;;;;;;2.28;0.50;;;27.70;94.60;;;;;;4173360;28;20185;-86
2022/07/19 08:15:31;;;;;;;0.50;0.50;;;28.00;94.40;;;;;;4147406;28;20104;-85
2022/07/19 08:17:52;;;;;;;0.80;0.50;;;28.00;93.10;;;;;;4148030;28;20052;-85
2022/07/19 08:20:14;;;;;;;1.00;1.00;;;28.10;93.20;;;;;;4152987;28;20049;-85
2022/07/19 08:22:34;;;;;;;0.63;0.63;;;28.10;93.20;;;;;;4147020;28;20040;-85
2022/07/19 08:24:54;;;;;;;0.40;0.40;;;28.40;93.10;;;;;;4162410;28;20048;-85
2022/07/19 08:27:15;;;;;;;2.97;0.40;;;28.70;90.90;;;;;;4131416;28;20057;-85
2022/07/19 08:29:36;;;;;;;0.30;0.30;;;28.70;85.30;;;;;;4140353;28;20537;-85
2022/07/19 08:31:57;;;;;;;1.58;0.40;;;28.90;83.30;;;;;;4162179;28;20056;-85
2022/07/19 08:34:19;;;;;;;1.27;0.38;;;29.00;84.00;;;;;;4147454;28;20052;-85
2022/07/19 08:36:40;;;;;;;0.30;0.30;;;29.30;83.30;;;;;;4146918;28;20158;-85
2022/07/19 08:39:01;;;;;;;0.35;0.35;;;29.50;82.00;;;;;;4147035;28;20637;-85
2022/07/19 08:41:24;;;;;;;0.40;0.40;;;29.60;82.70;;;;;;4147644;28;20051;-85
2022/07/19 08:43:49;;;;;;;0.68;0.30;;;29.80;83.80;;;;;;4139230;28;20058;-85
2022/07/19 08:46:10;;;;;;;0.30;0.30;;;29.80;80.00;;;;;;4145491;28;20056;-85
2022/07/19 08:48:34;;;;;;;0.30;0.30;;;29.90;81.70;;;;;;4147052;28;20114;-85
2022/07/19 08:51:05;;;;;;;0.20;0.20;;;30.20;80.90;;;;;;4161784;28;20868;-85
2022/07/19 08:53:29;;;;;;;;;;;30.60;81.80;;;;;;4162084;28;20527;-85
2022/07/19 08:55:51;;;;;;;0.65;0.30;;;30.80;80.00;;;;;;4152637;28;19964;-85
2022/07/19 08:58:12;;;;;;;0.20;0.20;;;31.10;78.50;;;;;;4161669;28;20099;-85
2022/07/19 09:00:34;;;;;;;0.50;0.30;;;31.00;73.30;;;;;;4146792;28;20068;-85
2022/07/19 09:02:55;;;;;;;0.95;0.30;;;31.00;74.60;;;;;;4161843;28;20520;-85
2022/07/19 09:05:16;;;;;;;3.28;0.30;;;31.00;74.60;;;;;;4161584;28;20127;-85
2022/07/19 09:07:38;;;;;;;1.42;0.30;;;31.30;76.10;;;;;;4161844;28;20061;-85
2022/07/19 09:10:22;;;;;;;0.73;0.30;;;31.30;72.30;;;;;;4146496;28;20070;-85
2022/07/19 09:13:12;;;;;;;0.20;0.20;;;31.30;70.00;;;;;;4145350;28;20128;-85
2022/07/19 09:15:44;;;;;;;0.40;0.30;;;31.40;71.10;;;;;;4145069;28;20052;-85
2022/07/19 09:18:26;;;;;;;0.28;0.28;;;31.30;68.80;;;;;;4145079;28;20045;-86
2022/07/19 09:20:52;;;;;;;0.30;0.30;;;31.30;69.00;;;;;;4161725;28;20051;-85
2022/07/19 09:23:13;;;;;;;0.20;0.20;;;31.30;67.50;;;;;;4141915;28;20053;-86
2022/07/19 09:25:36;;;;;;;0.88;0.28;;;31.50;68.70;;;;;;4145323;28;20052;-85
2022/07/19 09:27:58;;;;;;;0.40;0.25;;;31.40;68.90;;;;;;4145430;28;20139;-86
2022/07/19 09:30:32;;;;;;;0.20;0.20;;;31.70;69.30;;;;;;4154610;28;20592;-86
2022/07/19 09:33:21;;;;;;;3.72;0.30;;;32.30;73.00;;;;;;4147349;28;20126;-86
2022/07/19 09:35:47;;;;;;;3.42;0.30;;;32.30;69.50;;;;;;4161518;28;20076;-86
2022/07/19 09:38:15;;;;;;;0.20;0.20;;;32.10;67.10;;;;;;4161896;28;20095;-86
2022/07/19 09:40:36;;;;;;;0.28;0.20;;;32.30;69.10;;;;;;4146508;28;20049;-86
2022/07/19 09:42:56;;;;;;;1.98;0.20;;;32.60;68.20;;;;;;4146790;28;20104;-86
2022/07/19 09:45:17;;;;;;;0.77;0.20;;;32.20;67.70;;;;;;4146812;28;20599;-86
2022/07/19 09:47:41;;;;;;;0.22;0.20;;;32.30;66.00;;;;;;4161685;28;20174;-86
2022/07/19 09:50:05;;;;;;;0.40;0.20;;;32.30;67.80;;;;;;4160892;28;20088;-85
2022/07/19 09:52:26;;;;;;;2.92;0.20;;;32.40;67.30;;;;;;4146226;28;20056;-85
2022/07/19 09:54:57;;;;;;;0.30;0.20;;;32.20;65.20;;;;;;4146701;28;20087;-85
2022/07/19 09:57:24;;;;;;;0.60;0.20;;;32.20;64.70;;;;;;4151527;28;20045;-85
2022/07/19 09:59:51;;;;;;;1.38;0.20;;;32.10;64.20;;;;;;4172054;28;20060;-86
2022/07/19 10:02:13;;;;;;;0.20;0.20;;;32.40;64.80;;;;;;4155437;28;20129;-85
2022/07/19 10:04:35;;;;;;;0.20;0.20;;;32.70;63.30;;;;;;4144636;28;20727;-85
2022/07/19 10:06:55;;;;;;;0.20;0.20;;;32.90;64.70;;;;;;4146516;28;20057;-85
2022/07/19 10:09:21;;;;;;;0.20;0.20;;;32.60;64.20;;;;;;4157875;28;20460;-86
2022/07/19 10:11:50;;;;;;;0.20;0.20;;;33.20;68.60;;;;;;4162142;28;20060;-85
2022/07/19 10:14:12;;;;;;;0.20;0.20;;;33.00;63.40;;;;;;4149455;28;20092;-85
2022/07/19 10:16:44;;;;;;;1.10;0.20;;;33.10;64.30;;;;;;4160889;28;20043;-85
2022/07/19 10:19:17;;;;;;;0.20;0.20;;;33.40;64.30;;;;;;4155114;28;20049;-85
2022/07/19 10:21:38;;;;;;;0.20;0.20;;;33.60;62.60;;;;;;4144160;28;20048;-85
2022/07/19 10:24:00;;;;;;;0.20;0.20;;;33.90;64.70;;;;;;4145621;28;20157;-85
2022/07/19 10:26:43;;;;;;;0.32;0.20;;;33.70;60.80;;;;;;4145600;28;20084;-86
2022/07/19 10:29:15;;;;;;;0.30;0.20;;;33.40;62.10;;;;;;4144354;28;20052;-85
2022/07/19 10:31:38;;;;;;;0.20;0.20;;;33.10;62.90;;;;;;4145322;28;20508;-86
2022/07/19 10:34:25;;;;;;;;;;;33.70;65.70;;;;;;4159949;28;20101;-86
2022/07/19 10:36:48;;;;;;;0.20;0.20;;;33.90;62.20;;;;;;4137820;28;19980;-86
2022/07/19 10:39:21;;;;;;;0.43;0.20;;;33.70;60.10;;;;;;4157966;28;20056;-86
2022/07/19 10:42:17;;;;;;;0.20;0.20;;;33.60;61.10;;;;;;4162299;28;20121;-86
2022/07/19 10:44:57;;;;;;;0.20;0.20;;;33.70;60.30;;;;;;4159608;28;20404;-86
2022/07/19 10:47:17;;;;;;;0.20;0.20;;;34.00;60.50;;;;;;4152843;28;20057;-86
2022/07/19 10:49:48;;;;;;;0.30;0.20;;;34.60;62.70;;;;;;4153746;28;20048;-86
2022/07/19 10:52:27;;;;;;;0.80;0.20;;;34.40;59.20;;;;;;4140651;28;20181;-86
2022/07/19 10:55:17;;;;;;;0.20;0.20;;;33.90;62.30;;;;;;4139862;28;20053;-86
2022/07/19 10:57:39;;;;;;;0.20;0.20;;;33.80;59.40;;;;;;4159705;28;20048;-86
2022/07/19 11:00:01;;;;;;;1.15;0.20;;;33.80;59.20;;;;;;4160319;28;20055;-86
2022/07/19 11:02:25;;;;;;;0.20;0.20;;;33.70;59.50;;;;;;4163321;28;20103;-86
2022/07/19 11:05:04;;;;;;;0.30;0.20;;;33.80;60.50;;;;;;4157302;28;20539;-87
2022/07/19 11:07:25;;;;;;;0.20;0.20;;;34.20;60.20;;;;;;4147632;28;20052;-86
2022/07/19 11:09:54;;;;;;;0.20;0.20;;;34.00;58.20;;;;;;4148406;28;20112;-86
2022/07/19 11:12:45;;;;;;;2.30;0.20;;;33.90;58.30;;;;;;4148560;28;20615;-86
2022/07/19 11:15:09;;;;;;;0.20;0.20;;;34.10;60.40;;;;;;4155352;28;20528;-86
2022/07/19 11:17:36;;;;;;;0.20;0.20;;;34.30;60.40;;;;;;4154829;28;20063;-86
2022/07/19 11:20:03;;;;;;;0.20;0.20;;;34.30;59.70;;;;;;4161997;28;20127;-85
2022/07/19 11:22:24;;;;;;;0.20;0.20;;;34.20;58.80;;;;;;4154267;28;20053;-86
2022/07/19 11:24:45;;;;;;;2.53;0.20;;;34.20;59.40;;;;;;4156518;28;20064;-86
2022/07/19 11:27:08;;;;;;;1.30;0.30;;;33.90;60.10;;;;;;4161670;28;20063;-86
2022/07/19 11:29:52;;;;;;;0.95;0.20;;;34.10;59.60;;;;;;4163419;28;20056;-86
2022/07/19 11:32:18;;;;;;;0.20;0.20;;;34.50;56.80;;;;;;4147877;28;20053;-86
2022/07/19 11:34:39;;;;;;;0.15;0.15;;;35.10;59.90;;;;;;4162744;28;20133;-86
2022/07/19 11:37:01;;;;;;;0.20;0.20;;;34.70;59.70;;;;;;4148088;28;20832;-86
2022/07/19 11:39:22;;;;;;;0.40;0.20;;;34.40;57.90;;;;;;4161298;28;20048;-85
2022/07/19 11:41:44;;;;;;;2.92;0.20;;;34.50;57.70;;;;;;4141753;28;20048;-83
2022/07/19 11:44:06;;;;;;;;;;;34.80;59.00;;;;;;4157215;28;20095;-83
2022/07/19 11:46:30;;;;;;;0.67;0.17;;;34.70;59.30;;;;;;4162356;28;19928;-83
2022/07/19 11:49:03;;;;;;;0.20;0.20;;;34.70;59.50;;;;;;4147664;28;20151;-83
2022/07/19 11:51:25;;;;;;;0.30;0.30;;;35.00;59.90;;;;;;4162366;28;20056;-83
2022/07/19 11:53:51;;;;;;;0.20;0.20;;;35.10;57.40;;;;;;4147311;28;20129;-83
2022/07/19 11:56:25;;;;;;;6.13;1.05;;;35.00;57.90;;;;;;4162088;28;20041;-83
2022/07/19 11:58:47;;;;;;;0.68;0.30;;;35.00;58.60;;;;;;4162110;28;20096;-83
2022/07/19 12:01:08;;;;;;;0.20;0.20;;;35.20;60.70;;;;;;4131338;28;20102;-83
2022/07/19 12:03:30;;;;;;;0.82;0.20;;;35.00;58.00;;;;;;4156439;28;20079;-83
2022/07/19 12:06:06;;;;;;;0.20;0.20;;;35.30;58.90;;;;;;4146509;28;20101;-83
2022/07/19 12:08:39;;;;;;;0.40;0.20;;;35.30;57.90;;;;;;4158165;28;20101;-83
2022/07/19 12:11:00;;;;;;;0.20;0.20;;;35.10;57.70;;;;;;4149760;28;20068;-83
2022/07/19 12:13:31;;;;;;;0.20;0.20;;;34.70;57.40;;;;;;4161553;28;20064;-83
2022/07/19 12:15:55;;;;;;;0.20;0.20;;;35.20;59.70;;;;;;4143365;28;20052;-83
2022/07/19 12:18:17;;;;;;;1.15;0.10;;;35.40;61.50;;;;;;4156062;28;20099;-83
2022/07/19 12:20:38;;;;;;;0.15;0.15;;;35.40;59.00;;;;;;4160740;28;20084;-83
2022/07/19 12:23:18;;;;;;;3.05;0.20;;;35.10;55.70;;;;;;4160688;28;20131;-83
2022/07/19 12:25:40;;;;;;;0.20;0.20;;;35.10;58.00;;;;;;4146602;28;20050;-83
2022/07/19 12:28:02;;;;;;;1.75;0.20;;;35.40;59.10;;;;;;4160821;28;20480;-83